sensor_id;sensor_type;location;lat;lon;timestamp;P1;durP1;ratioP1;P2;durP2;ratioP2
51664;SDS011;37751;52.408;12.536;2022-09-21T00:01:08;6.53;;;3.00;;
51664;SDS011;37751;52.408;12.536;2022-09-21T00:03:41;4.00;;;3.13;;
51664;SDS011;37751;52.408;12.536;2022-09-21T00:06:10;7.60;;;2.90;;
51664;SDS011;37751;52.408;12.536;2022-09-21T00:08:38;4.87;;;2.80;;
51664;SDS011;37751;52.408;12.536;2022-09-21T00:11:05;7.67;;;3.10;;
51664;SDS011;37751;52.408;12.536;2022-09-21T00:13:32;5.83;;;2.80;;
51664;SDS011;37751;52.408;12.536;2022-09-21T00:16:00;7.23;;;2.93;;
51664;SDS011;37751;52.408;12.536;2022-09-21T00:18:31;8.00;;;3.67;;
51664;SDS011;37751;52.408;12.536;2022-09-21T00:20:58;9.60;;;3.13;;
51664;SDS011;37751;52.408;12.536;2022-09-21T00:23:24;6.60;;;2.70;;
51664;SDS011;37751;52.408;12.536;2022-09-21T00:25:51;4.50;;;2.43;;
51664;SDS011;37751;52.408;12.536;2022-09-21T00:28:18;7.00;;;2.53;;
51664;SDS011;37751;52.408;12.536;2022-09-21T00:30:44;5.30;;;2.50;;
51664;SDS011;37751;52.408;12.536;2022-09-21T00:33:11;4.20;;;2.27;;
51664;SDS011;37751;52.408;12.536;2022-09-21T00:35:37;4.53;;;2.57;;
51664;SDS011;37751;52.408;12.536;2022-09-21T00:38:04;5.03;;;2.70;;
51664;SDS011;37751;52.408;12.536;2022-09-21T00:40:31;4.17;;;2.20;;
51664;SDS011;37751;52.408;12.536;2022-09-21T00:43:11;6.27;;;2.30;;
51664;SDS011;37751;52.408;12.536;2022-09-21T00:45:42;5.70;;;2.87;;
51664;SDS011;37751;52.408;12.536;2022-09-21T00:48:12;7.70;;;2.80;;
51664;SDS011;37751;52.408;12.536;2022-09-21T00:50:41;10.07;;;2.60;;
51664;SDS011;37751;52.408;12.536;2022-09-21T00:53:13;7.03;;;2.50;;
51664;SDS011;37751;52.408;12.536;2022-09-21T00:55:42;10.30;;;2.67;;
51664;SDS011;37751;52.408;12.536;2022-09-21T00:58:16;9.37;;;2.63;;
51664;SDS011;37751;52.408;12.536;2022-09-21T01:00:48;6.57;;;2.40;;
51664;SDS011;37751;52.408;12.536;2022-09-21T01:03:15;7.33;;;3.07;;
51664;SDS011;37751;52.408;12.536;2022-09-21T01:05:41;9.17;;;2.53;;
51664;SDS011;37751;52.408;12.536;2022-09-21T01:08:08;7.27;;;2.37;;
51664;SDS011;37751;52.408;12.536;2022-09-21T01:16:14;9.27;;;2.47;;
51664;SDS011;37751;52.408;12.536;2022-09-21T01:19:07;9.43;;;2.40;;
51664;SDS011;37751;52.408;12.536;2022-09-21T01:22:02;16.53;;;3.10;;
51664;SDS011;37751;52.408;12.536;2022-09-21T01:24:37;5.93;;;2.77;;
51664;SDS011;37751;52.408;12.536;2022-09-21T01:27:21;7.13;;;3.10;;
51664;SDS011;37751;52.408;12.536;2022-09-21T01:30:04;10.63;;;3.20;;
51664;SDS011;37751;52.408;12.536;2022-09-21T01:32:55;9.10;;;2.83;;
51664;SDS011;37751;52.408;12.536;2022-09-21T01:35:43;8.70;;;2.30;;
51664;SDS011;37751;52.408;12.536;2022-09-21T01:38:21;9.13;;;2.57;;
51664;SDS011;37751;52.408;12.536;2022-09-21T01:40:50;7.87;;;2.50;;
51664;SDS011;37751;52.408;12.536;2022-09-21T01:43:25;6.00;;;2.60;;
51664;SDS011;37751;52.408;12.536;2022-09-21T01:45:54;6.77;;;2.30;;
51664;SDS011;37751;52.408;12.536;2022-09-21T01:48:27;6.40;;;2.30;;
51664;SDS011;37751;52.408;12.536;2022-09-21T01:50:57;5.40;;;2.33;;
51664;SDS011;37751;52.408;12.536;2022-09-21T01:53:30;7.40;;;2.73;;
51664;SDS011;37751;52.408;12.536;2022-09-21T01:56:12;9.77;;;3.30;;
51664;SDS011;37751;52.408;12.536;2022-09-21T01:58:46;4.37;;;2.30;;
51664;SDS011;37751;52.408;12.536;2022-09-21T02:01:23;7.60;;;2.50;;
51664;SDS011;37751;52.408;12.536;2022-09-21T02:03:55;9.80;;;2.30;;
51664;SDS011;37751;52.408;12.536;2022-09-21T02:06:25;7.40;;;2.53;;
51664;SDS011;37751;52.408;12.536;2022-09-21T02:08:54;8.37;;;2.57;;
51664;SDS011;37751;52.408;12.536;2022-09-21T02:11:21;9.50;;;2.40;;
51664;SDS011;37751;52.408;12.536;2022-09-21T02:13:49;6.60;;;2.77;;
51664;SDS011;37751;52.408;12.536;2022-09-21T02:16:38;7.20;;;2.60;;
51664;SDS011;37751;52.408;12.536;2022-09-21T02:22:09;9.67;;;2.90;;
51664;SDS011;37751;52.408;12.536;2022-09-21T02:24:45;4.73;;;2.90;;
51664;SDS011;37751;52.408;12.536;2022-09-21T02:30:07;9.03;;;2.93;;
51664;SDS011;37751;52.408;12.536;2022-09-21T02:32:49;10.30;;;3.07;;
51664;SDS011;37751;52.408;12.536;2022-09-21T02:35:50;10.50;;;3.17;;
51664;SDS011;37751;52.408;12.536;2022-09-21T02:38:43;8.10;;;2.90;;
51664;SDS011;37751;52.408;12.536;2022-09-21T02:41:36;5.67;;;2.90;;
51664;SDS011;37751;52.408;12.536;2022-09-21T02:44:26;10.40;;;2.70;;
51664;SDS011;37751;52.408;12.536;2022-09-21T02:47:07;4.93;;;2.30;;
51664;SDS011;37751;52.408;12.536;2022-09-21T02:49:48;6.00;;;2.90;;
51664;SDS011;37751;52.408;12.536;2022-09-21T02:52:19;6.60;;;3.07;;
51664;SDS011;37751;52.408;12.536;2022-09-21T02:54:50;7.57;;;2.90;;
51664;SDS011;37751;52.408;12.536;2022-09-21T02:57:19;5.33;;;2.73;;
51664;SDS011;37751;52.408;12.536;2022-09-21T02:59:50;7.60;;;2.57;;
51664;SDS011;37751;52.408;12.536;2022-09-21T03:02:17;7.13;;;2.67;;
51664;SDS011;37751;52.408;12.536;2022-09-21T03:04:44;3.93;;;2.30;;
51664;SDS011;37751;52.408;12.536;2022-09-21T03:07:13;5.57;;;2.43;;
51664;SDS011;37751;52.408;12.536;2022-09-21T03:09:41;3.70;;;2.30;;
51664;SDS011;37751;52.408;12.536;2022-09-21T03:12:08;5.77;;;1.73;;
51664;SDS011;37751;52.408;12.536;2022-09-21T03:14:34;9.60;;;2.67;;
51664;SDS011;37751;52.408;12.536;2022-09-21T03:17:01;4.77;;;2.10;;
51664;SDS011;37751;52.408;12.536;2022-09-21T03:19:28;4.27;;;2.50;;
51664;SDS011;37751;52.408;12.536;2022-09-21T03:21:54;6.53;;;2.60;;
51664;SDS011;37751;52.408;12.536;2022-09-21T03:24:21;8.97;;;2.30;;
51664;SDS011;37751;52.408;12.536;2022-09-21T03:27:06;7.27;;;2.97;;
51664;SDS011;37751;52.408;12.536;2022-09-21T03:29:34;7.20;;;2.50;;
51664;SDS011;37751;52.408;12.536;2022-09-21T03:32:01;5.77;;;2.70;;
51664;SDS011;37751;52.408;12.536;2022-09-21T03:34:28;4.30;;;2.60;;
51664;SDS011;37751;52.408;12.536;2022-09-21T03:36:57;9.37;;;3.03;;
51664;SDS011;37751;52.408;12.536;2022-09-21T03:39:25;5.80;;;3.07;;
51664;SDS011;37751;52.408;12.536;2022-09-21T03:41:52;8.83;;;3.10;;
51664;SDS011;37751;52.408;12.536;2022-09-21T03:44:22;11.10;;;3.20;;
51664;SDS011;37751;52.408;12.536;2022-09-21T03:46:50;7.43;;;3.50;;
51664;SDS011;37751;52.408;12.536;2022-09-21T03:49:16;11.00;;;3.13;;
51664;SDS011;37751;52.408;12.536;2022-09-21T03:51:43;6.73;;;3.27;;
51664;SDS011;37751;52.408;12.536;2022-09-21T03:54:10;13.40;;;3.57;;
51664;SDS011;37751;52.408;12.536;2022-09-21T03:56:37;8.93;;;3.23;;
51664;SDS011;37751;52.408;12.536;2022-09-21T03:59:03;5.73;;;3.23;;
51664;SDS011;37751;52.408;12.536;2022-09-21T04:01:30;7.90;;;3.60;;
51664;SDS011;37751;52.408;12.536;2022-09-21T04:03:56;9.23;;;3.63;;
51664;SDS011;37751;52.408;12.536;2022-09-21T04:06:23;14.43;;;3.77;;
51664;SDS011;37751;52.408;12.536;2022-09-21T04:08:50;9.57;;;3.77;;
51664;SDS011;37751;52.408;12.536;2022-09-21T04:11:18;6.73;;;3.73;;
51664;SDS011;37751;52.408;12.536;2022-09-21T04:13:50;11.17;;;4.60;;
51664;SDS011;37751;52.408;12.536;2022-09-21T04:16:31;9.60;;;3.60;;
51664;SDS011;37751;52.408;12.536;2022-09-21T04:18:57;10.57;;;3.83;;
51664;SDS011;37751;52.408;12.536;2022-09-21T04:21:24;7.73;;;3.90;;
51664;SDS011;37751;52.408;12.536;2022-09-21T04:23:50;9.43;;;4.00;;
51664;SDS011;37751;52.408;12.536;2022-09-21T04:26:21;11.87;;;3.80;;
51664;SDS011;37751;52.408;12.536;2022-09-21T04:28:53;10.80;;;3.87;;
51664;SDS011;37751;52.408;12.536;2022-09-21T04:31:22;16.10;;;3.97;;
51664;SDS011;37751;52.408;12.536;2022-09-21T04:33:50;7.87;;;3.53;;
51664;SDS011;37751;52.408;12.536;2022-09-21T04:36:17;12.97;;;3.57;;
51664;SDS011;37751;52.408;12.536;2022-09-21T04:38:45;9.30;;;4.20;;
51664;SDS011;37751;52.408;12.536;2022-09-21T04:41:12;12.03;;;4.67;;
51664;SDS011;37751;52.408;12.536;2022-09-21T04:43:42;11.17;;;3.30;;
51664;SDS011;37751;52.408;12.536;2022-09-21T04:46:11;11.57;;;3.50;;
51664;SDS011;37751;52.408;12.536;2022-09-21T04:48:39;11.43;;;4.43;;
51664;SDS011;37751;52.408;12.536;2022-09-21T04:51:06;11.37;;;4.10;;
51664;SDS011;37751;52.408;12.536;2022-09-21T04:53:35;11.17;;;4.13;;
51664;SDS011;37751;52.408;12.536;2022-09-21T04:56:04;7.33;;;4.07;;
51664;SDS011;37751;52.408;12.536;2022-09-21T04:58:31;9.00;;;4.17;;
51664;SDS011;37751;52.408;12.536;2022-09-21T05:00:58;8.07;;;3.47;;
51664;SDS011;37751;52.408;12.536;2022-09-21T05:03:25;14.07;;;4.03;;
51664;SDS011;37751;52.408;12.536;2022-09-21T05:05:53;11.93;;;4.27;;
51664;SDS011;37751;52.408;12.536;2022-09-21T05:08:22;12.43;;;4.17;;
51664;SDS011;37751;52.408;12.536;2022-09-21T05:11:09;9.77;;;3.60;;
51664;SDS011;37751;52.408;12.536;2022-09-21T05:13:41;11.17;;;4.07;;
51664;SDS011;37751;52.408;12.536;2022-09-21T05:16:08;10.00;;;4.13;;
51664;SDS011;37751;52.408;12.536;2022-09-21T05:18:35;10.00;;;4.43;;
51664;SDS011;37751;52.408;12.536;2022-09-21T05:21:02;12.57;;;4.40;;
51664;SDS011;37751;52.408;12.536;2022-09-21T05:23:30;13.50;;;4.40;;
51664;SDS011;37751;52.408;12.536;2022-09-21T05:25:57;9.77;;;4.43;;
51664;SDS011;37751;52.408;12.536;2022-09-21T05:28:25;11.73;;;4.63;;
51664;SDS011;37751;52.408;12.536;2022-09-21T05:31:03;16.63;;;4.63;;
51664;SDS011;37751;52.408;12.536;2022-09-21T05:33:55;9.93;;;4.83;;
51664;SDS011;37751;52.408;12.536;2022-09-21T05:37:11;14.57;;;4.57;;
51664;SDS011;37751;52.408;12.536;2022-09-21T05:39:18;11.60;;;4.53;;
51664;SDS011;37751;52.408;12.536;2022-09-21T05:41:45;15.60;;;4.93;;
51664;SDS011;37751;52.408;12.536;2022-09-21T05:44:12;10.87;;;5.00;;
51664;SDS011;37751;52.408;12.536;2022-09-21T05:46:49;14.53;;;5.40;;
51664;SDS011;37751;52.408;12.536;2022-09-21T05:49:25;11.80;;;4.53;;
51664;SDS011;37751;52.408;12.536;2022-09-21T05:54:40;19.43;;;5.43;;
51664;SDS011;37751;52.408;12.536;2022-09-21T06:02:49;7.63;;;4.63;;
51664;SDS011;37751;52.408;12.536;2022-09-21T06:05:28;12.10;;;4.80;;
51664;SDS011;37751;52.408;12.536;2022-09-21T06:07:55;10.80;;;5.23;;
51664;SDS011;37751;52.408;12.536;2022-09-21T06:10:21;11.77;;;4.40;;
51664;SDS011;37751;52.408;12.536;2022-09-21T06:12:50;10.90;;;4.27;;
51664;SDS011;37751;52.408;12.536;2022-09-21T06:15:16;17.00;;;4.53;;
51664;SDS011;37751;52.408;12.536;2022-09-21T06:17:43;17.53;;;4.90;;
51664;SDS011;37751;52.408;12.536;2022-09-21T06:20:09;12.67;;;4.33;;
51664;SDS011;37751;52.408;12.536;2022-09-21T06:22:36;11.10;;;4.77;;
51664;SDS011;37751;52.408;12.536;2022-09-21T06:25:02;18.43;;;5.47;;
51664;SDS011;37751;52.408;12.536;2022-09-21T06:27:29;15.37;;;4.73;;
51664;SDS011;37751;52.408;12.536;2022-09-21T06:29:56;14.40;;;4.90;;
51664;SDS011;37751;52.408;12.536;2022-09-21T06:32:22;10.33;;;4.80;;
51664;SDS011;37751;52.408;12.536;2022-09-21T06:34:49;10.03;;;4.63;;
51664;SDS011;37751;52.408;12.536;2022-09-21T06:37:15;12.23;;;4.73;;
51664;SDS011;37751;52.408;12.536;2022-09-21T06:39:42;13.57;;;5.30;;
51664;SDS011;37751;52.408;12.536;2022-09-21T06:42:08;10.47;;;4.97;;
51664;SDS011;37751;52.408;12.536;2022-09-21T06:44:35;10.50;;;4.70;;
51664;SDS011;37751;52.408;12.536;2022-09-21T06:47:01;9.77;;;4.67;;
51664;SDS011;37751;52.408;12.536;2022-09-21T06:49:28;9.27;;;4.40;;
51664;SDS011;37751;52.408;12.536;2022-09-21T06:51:54;12.43;;;5.17;;
51664;SDS011;37751;52.408;12.536;2022-09-21T06:54:21;9.13;;;4.50;;
51664;SDS011;37751;52.408;12.536;2022-09-21T06:56:48;8.33;;;4.37;;
51664;SDS011;37751;52.408;12.536;2022-09-21T06:59:14;10.93;;;4.70;;
51664;SDS011;37751;52.408;12.536;2022-09-21T07:01:41;15.93;;;5.23;;
51664;SDS011;37751;52.408;12.536;2022-09-21T07:04:07;11.13;;;5.23;;
51664;SDS011;37751;52.408;12.536;2022-09-21T07:06:34;8.53;;;4.50;;
51664;SDS011;37751;52.408;12.536;2022-09-21T07:09:01;14.43;;;4.67;;
51664;SDS011;37751;52.408;12.536;2022-09-21T07:11:48;19.00;;;5.50;;
51664;SDS011;37751;52.408;12.536;2022-09-21T07:14:14;8.00;;;3.73;;
51664;SDS011;37751;52.408;12.536;2022-09-21T07:16:41;15.13;;;4.13;;
51664;SDS011;37751;52.408;12.536;2022-09-21T07:19:08;11.57;;;4.57;;
51664;SDS011;37751;52.408;12.536;2022-09-21T07:21:37;12.00;;;5.15;;
51664;SDS011;37751;52.408;12.536;2022-09-21T07:24:03;9.45;;;4.53;;
51664;SDS011;37751;52.408;12.536;2022-09-21T07:26:36;9.27;;;4.30;;
51664;SDS011;37751;52.408;12.536;2022-09-21T07:29:02;7.17;;;4.00;;
51664;SDS011;37751;52.408;12.536;2022-09-21T07:31:29;10.67;;;4.80;;
51664;SDS011;37751;52.408;12.536;2022-09-21T07:33:56;9.13;;;4.60;;
51664;SDS011;37751;52.408;12.536;2022-09-21T07:36:24;7.40;;;3.40;;
51664;SDS011;37751;52.408;12.536;2022-09-21T07:38:51;8.57;;;4.47;;
51664;SDS011;37751;52.408;12.536;2022-09-21T07:41:19;7.57;;;4.60;;
51664;SDS011;37751;52.408;12.536;2022-09-21T07:43:45;11.73;;;4.67;;
51664;SDS011;37751;52.408;12.536;2022-09-21T07:46:12;13.07;;;4.45;;
51664;SDS011;37751;52.408;12.536;2022-09-21T07:48:40;7.57;;;4.13;;
51664;SDS011;37751;52.408;12.536;2022-09-21T07:51:08;11.07;;;4.50;;
51664;SDS011;37751;52.408;12.536;2022-09-21T07:53:37;10.10;;;4.45;;
51664;SDS011;37751;52.408;12.536;2022-09-21T07:56:10;10.32;;;4.03;;
51664;SDS011;37751;52.408;12.536;2022-09-21T07:58:38;12.23;;;4.53;;
51664;SDS011;37751;52.408;12.536;2022-09-21T08:01:24;7.80;;;3.97;;
51664;SDS011;37751;52.408;12.536;2022-09-21T08:03:53;6.38;;;3.80;;
51664;SDS011;37751;52.408;12.536;2022-09-21T08:06:20;10.57;;;4.53;;
51664;SDS011;37751;52.408;12.536;2022-09-21T08:08:48;10.48;;;3.75;;
51664;SDS011;37751;52.408;12.536;2022-09-21T08:11:22;13.00;;;4.28;;
51664;SDS011;37751;52.408;12.536;2022-09-21T08:13:52;11.52;;;4.20;;
51664;SDS011;37751;52.408;12.536;2022-09-21T08:16:22;9.63;;;4.07;;
51664;SDS011;37751;52.408;12.536;2022-09-21T08:18:49;8.48;;;4.20;;
51664;SDS011;37751;52.408;12.536;2022-09-21T08:21:16;12.10;;;3.65;;
51664;SDS011;37751;52.408;12.536;2022-09-21T08:23:44;9.15;;;4.50;;
51664;SDS011;37751;52.408;12.536;2022-09-21T08:26:11;5.25;;;3.47;;
51664;SDS011;37751;52.408;12.536;2022-09-21T08:28:44;9.18;;;4.22;;
51664;SDS011;37751;52.408;12.536;2022-09-21T08:31:16;4.85;;;3.30;;
51664;SDS011;37751;52.408;12.536;2022-09-21T08:33:45;13.85;;;3.88;;
51664;SDS011;37751;52.408;12.536;2022-09-21T08:36:12;7.22;;;3.28;;
51664;SDS011;37751;52.408;12.536;2022-09-21T08:38:39;7.88;;;4.07;;
51664;SDS011;37751;52.408;12.536;2022-09-21T08:41:16;5.50;;;3.40;;
51664;SDS011;37751;52.408;12.536;2022-09-21T08:43:53;9.63;;;3.47;;
51664;SDS011;37751;52.408;12.536;2022-09-21T08:46:24;5.05;;;3.03;;
51664;SDS011;37751;52.408;12.536;2022-09-21T08:51:25;5.00;;;2.92;;
51664;SDS011;37751;52.408;12.536;2022-09-21T08:54:03;3.22;;;2.30;;
51664;SDS011;37751;52.408;12.536;2022-09-21T08:56:37;5.93;;;2.40;;
51664;SDS011;37751;52.408;12.536;2022-09-21T08:59:23;7.00;;;2.53;;
51664;SDS011;37751;52.408;12.536;2022-09-21T09:12:43;4.53;;;1.95;;
51664;SDS011;37751;52.408;12.536;2022-09-21T09:21:02;4.95;;;1.80;;
51664;SDS011;37751;52.408;12.536;2022-09-21T09:26:53;5.68;;;1.30;;
51664;SDS011;37751;52.408;12.536;2022-09-21T09:32:00;2.88;;;1.50;;
51664;SDS011;37751;52.408;12.536;2022-09-21T09:34:37;8.13;;;1.40;;
51664;SDS011;37751;52.408;12.536;2022-09-21T09:37:14;3.83;;;1.40;;
51664;SDS011;37751;52.408;12.536;2022-09-21T09:39:42;2.03;;;1.40;;
51664;SDS011;37751;52.408;12.536;2022-09-21T09:53:05;4.05;;;1.60;;
51664;SDS011;37751;52.408;12.536;2022-09-21T09:55:38;2.00;;;1.25;;
51664;SDS011;37751;52.408;12.536;2022-09-21T10:01:35;2.22;;;1.27;;
51664;SDS011;37751;52.408;12.536;2022-09-21T10:04:09;4.18;;;1.35;;
51664;SDS011;37751;52.408;12.536;2022-09-21T10:06:37;2.80;;;0.85;;
51664;SDS011;37751;52.408;12.536;2022-09-21T10:09:24;5.18;;;1.33;;
51664;SDS011;37751;52.408;12.536;2022-09-21T10:12:14;3.67;;;1.20;;
51664;SDS011;37751;52.408;12.536;2022-09-21T10:14:50;2.72;;;0.80;;
51664;SDS011;37751;52.408;12.536;2022-09-21T10:17:18;3.97;;;0.95;;
51664;SDS011;37751;52.408;12.536;2022-09-21T10:19:45;3.40;;;1.02;;
51664;SDS011;37751;52.408;12.536;2022-09-21T10:22:18;2.72;;;0.80;;
51664;SDS011;37751;52.408;12.536;2022-09-21T10:24:50;1.10;;;0.70;;
51664;SDS011;37751;52.408;12.536;2022-09-21T10:27:28;2.33;;;1.20;;
51664;SDS011;37751;52.408;12.536;2022-09-21T10:29:59;2.78;;;1.08;;
51664;SDS011;37751;52.408;12.536;2022-09-21T10:32:27;1.75;;;0.70;;
51664;SDS011;37751;52.408;12.536;2022-09-21T10:37:31;1.45;;;0.68;;
51664;SDS011;37751;52.408;12.536;2022-09-21T10:42:44;1.73;;;0.63;;
51664;SDS011;37751;52.408;12.536;2022-09-21T10:45:14;1.30;;;0.75;;
51664;SDS011;37751;52.408;12.536;2022-09-21T10:47:45;0.98;;;0.80;;
51664;SDS011;37751;52.408;12.536;2022-09-21T11:01:51;2.40;;;0.60;;
51664;SDS011;37751;52.408;12.536;2022-09-21T11:04:40;1.83;;;0.90;;
51664;SDS011;37751;52.408;12.536;2022-09-21T11:07:12;1.92;;;0.70;;
51664;SDS011;37751;52.408;12.536;2022-09-21T11:12:29;1.10;;;0.70;;
51664;SDS011;37751;52.408;12.536;2022-09-21T11:15:19;2.33;;;0.88;;
51664;SDS011;37751;52.408;12.536;2022-09-21T11:18:01;1.52;;;0.80;;
51664;SDS011;37751;52.408;12.536;2022-09-21T11:26:09;3.72;;;0.68;;
51664;SDS011;37751;52.408;12.536;2022-09-21T11:29:08;1.65;;;0.88;;
51664;SDS011;37751;52.408;12.536;2022-09-21T11:37:24;1.05;;;0.65;;
51664;SDS011;37751;52.408;12.536;2022-09-21T11:45:02;0.98;;;0.60;;
51664;SDS011;37751;52.408;12.536;2022-09-21T11:50:56;1.40;;;0.55;;
51664;SDS011;37751;52.408;12.536;2022-09-21T11:53:35;2.70;;;0.50;;
51664;SDS011;37751;52.408;12.536;2022-09-21T12:04:28;3.28;;;0.73;;
51664;SDS011;37751;52.408;12.536;2022-09-21T12:21:26;2.40;;;0.40;;
51664;SDS011;37751;52.408;12.536;2022-09-21T12:24:03;0.55;;;0.47;;
51664;SDS011;37751;52.408;12.536;2022-09-21T12:26:40;0.68;;;0.47;;
51664;SDS011;37751;52.408;12.536;2022-09-21T12:29:14;6.22;;;0.60;;
51664;SDS011;37751;52.408;12.536;2022-09-21T12:34:21;0.57;;;0.40;;
51664;SDS011;37751;52.408;12.536;2022-09-21T12:37:02;2.15;;;0.52;;
51664;SDS011;37751;52.408;12.536;2022-09-21T12:39:38;3.05;;;1.50;;
51664;SDS011;37751;52.408;12.536;2022-09-21T12:45:11;5.22;;;2.72;;
51664;SDS011;37751;52.408;12.536;2022-09-21T12:47:55;4.38;;;0.50;;
51664;SDS011;37751;52.408;12.536;2022-09-21T12:50:45;1.90;;;0.47;;
51664;SDS011;37751;52.408;12.536;2022-09-21T12:53:16;3.92;;;2.25;;
51664;SDS011;37751;52.408;12.536;2022-09-21T12:58:56;1.70;;;0.40;;
51664;SDS011;37751;52.408;12.536;2022-09-21T13:12:55;1.23;;;0.65;;
51664;SDS011;37751;52.408;12.536;2022-09-21T13:15:30;3.72;;;0.70;;
51664;SDS011;37751;52.408;12.536;2022-09-21T13:18:15;0.43;;;0.40;;
51664;SDS011;37751;52.408;12.536;2022-09-21T13:20:51;0.80;;;0.65;;
51664;SDS011;37751;52.408;12.536;2022-09-21T13:23:26;2.45;;;0.73;;
51664;SDS011;37751;52.408;12.536;2022-09-21T13:26:08;1.30;;;0.70;;
51664;SDS011;37751;52.408;12.536;2022-09-21T13:37:13;1.05;;;0.43;;
51664;SDS011;37751;52.408;12.536;2022-09-21T13:44:56;0.50;;;0.38;;
51664;SDS011;37751;52.408;12.536;2022-09-21T13:47:39;1.13;;;0.30;;
51664;SDS011;37751;52.408;12.536;2022-09-21T13:50:11;0.40;;;0.35;;
51664;SDS011;37751;52.408;12.536;2022-09-21T13:53:03;0.22;;;0.15;;
51664;SDS011;37751;52.408;12.536;2022-09-21T13:55:33;2.72;;;0.45;;
51664;SDS011;37751;52.408;12.536;2022-09-21T13:58:05;0.98;;;0.47;;
51664;SDS011;37751;52.408;12.536;2022-09-21T14:00:50;0.73;;;0.45;;
51664;SDS011;37751;52.408;12.536;2022-09-21T14:06:06;0.45;;;0.30;;
51664;SDS011;37751;52.408;12.536;2022-09-21T14:08:37;0.70;;;0.55;;
51664;SDS011;37751;52.408;12.536;2022-09-21T14:11:15;1.45;;;0.43;;
51664;SDS011;37751;52.408;12.536;2022-09-21T14:13:58;0.85;;;0.40;;
51664;SDS011;37751;52.408;12.536;2022-09-21T14:16:50;0.77;;;0.30;;
51664;SDS011;37751;52.408;12.536;2022-09-21T14:24:33;0.47;;;0.30;;
51664;SDS011;37751;52.408;12.536;2022-09-21T14:27:14;0.60;;;0.47;;
51664;SDS011;37751;52.408;12.536;2022-09-21T14:29:50;0.20;;;0.20;;
51664;SDS011;37751;52.408;12.536;2022-09-21T14:32:23;0.10;;;0.10;;
51664;SDS011;37751;52.408;12.536;2022-09-21T14:34:55;0.22;;;0.17;;
51664;SDS011;37751;52.408;12.536;2022-09-21T14:37:31;0.80;;;0.20;;
51664;SDS011;37751;52.408;12.536;2022-09-21T14:40:03;0.47;;;0.20;;
51664;SDS011;37751;52.408;12.536;2022-09-21T14:42:42;0.50;;;0.40;;
51664;SDS011;37751;52.408;12.536;2022-09-21T15:10:19;0.95;;;0.40;;
51664;SDS011;37751;52.408;12.536;2022-09-21T15:19:04;3.08;;;0.40;;
51664;SDS011;37751;52.408;12.536;2022-09-21T15:21:42;0.77;;;0.30;;
51664;SDS011;37751;52.408;12.536;2022-09-21T15:27:07;0.50;;;0.30;;
51664;SDS011;37751;52.408;12.536;2022-09-21T15:29:43;0.40;;;0.20;;
51664;SDS011;37751;52.408;12.536;2022-09-21T15:32:23;1.45;;;0.68;;
51664;SDS011;37751;52.408;12.536;2022-09-21T15:35:30;2.42;;;0.32;;
51664;SDS011;37751;52.408;12.536;2022-09-21T15:37:49;0.40;;;0.30;;
51664;SDS011;37751;52.408;12.536;2022-09-21T15:40:18;0.40;;;0.20;;
51664;SDS011;37751;52.408;12.536;2022-09-21T15:48:26;0.10;;;0.10;;
51664;SDS011;37751;52.408;12.536;2022-09-21T15:53:40;2.05;;;0.32;;
51664;SDS011;37751;52.408;12.536;2022-09-21T15:56:16;1.70;;;0.17;;
51664;SDS011;37751;52.408;12.536;2022-09-21T15:58:47;0.22;;;0.15;;
51664;SDS011;37751;52.408;12.536;2022-09-21T16:01:15;0.57;;;0.15;;
51664;SDS011;37751;52.408;12.536;2022-09-21T16:03:46;0.55;;;0.20;;
51664;SDS011;37751;52.408;12.536;2022-09-21T16:08:46;1.20;;;0.32;;
51664;SDS011;37751;52.408;12.536;2022-09-21T16:13:58;2.05;;;0.40;;
51664;SDS011;37751;52.408;12.536;2022-09-21T16:19:41;0.75;;;0.65;;
51664;SDS011;37751;52.408;12.536;2022-09-21T16:22:10;0.75;;;0.30;;
51664;SDS011;37751;52.408;12.536;2022-09-21T16:24:49;5.45;;;0.60;;
51664;SDS011;37751;52.408;12.536;2022-09-21T16:27:21;3.22;;;0.50;;
51664;SDS011;37751;52.408;12.536;2022-09-21T16:29:50;0.47;;;0.40;;
51664;SDS011;37751;52.408;12.536;2022-09-21T16:34:47;1.05;;;0.40;;
51664;SDS011;37751;52.408;12.536;2022-09-21T16:39:53;2.55;;;0.30;;
51664;SDS011;37751;52.408;12.536;2022-09-21T16:42:22;0.68;;;0.50;;
51664;SDS011;37751;52.408;12.536;2022-09-21T16:44:52;1.95;;;0.40;;
51664;SDS011;37751;52.408;12.536;2022-09-21T16:47:20;0.25;;;0.20;;
51664;SDS011;37751;52.408;12.536;2022-09-21T16:49:54;1.33;;;0.52;;
51664;SDS011;37751;52.408;12.536;2022-09-21T16:52:27;0.60;;;0.38;;
51664;SDS011;37751;52.408;12.536;2022-09-21T16:54:55;0.75;;;0.40;;
51664;SDS011;37751;52.408;12.536;2022-09-21T16:57:24;0.55;;;0.40;;
51664;SDS011;37751;52.408;12.536;2022-09-21T16:59:51;1.17;;;0.60;;
51664;SDS011;37751;52.408;12.536;2022-09-21T17:02:18;1.55;;;0.70;;
51664;SDS011;37751;52.408;12.536;2022-09-21T17:04:44;1.20;;;0.60;;
51664;SDS011;37751;52.408;12.536;2022-09-21T17:07:13;1.10;;;0.63;;
51664;SDS011;37751;52.408;12.536;2022-09-21T17:09:41;0.93;;;0.50;;
51664;SDS011;37751;52.408;12.536;2022-09-21T17:12:10;2.30;;;0.80;;
51664;SDS011;37751;52.408;12.536;2022-09-21T17:14:38;1.27;;;0.50;;
51664;SDS011;37751;52.408;12.536;2022-09-21T17:17:24;2.80;;;0.40;;
51664;SDS011;37751;52.408;12.536;2022-09-21T17:19:51;0.50;;;0.40;;
51664;SDS011;37751;52.408;12.536;2022-09-21T17:22:19;2.17;;;1.42;;
51664;SDS011;37751;52.408;12.536;2022-09-21T17:24:48;3.15;;;0.73;;
51664;SDS011;37751;52.408;12.536;2022-09-21T17:27:18;2.25;;;0.60;;
51664;SDS011;37751;52.408;12.536;2022-09-21T17:29:47;2.22;;;0.90;;
51664;SDS011;37751;52.408;12.536;2022-09-21T17:32:15;0.90;;;0.70;;
51664;SDS011;37751;52.408;12.536;2022-09-21T17:34:46;2.75;;;0.93;;
51664;SDS011;37751;52.408;12.536;2022-09-21T17:37:17;2.30;;;1.45;;
51664;SDS011;37751;52.408;12.536;2022-09-21T17:39:44;7.63;;;1.05;;
51664;SDS011;37751;52.408;12.536;2022-09-21T17:42:16;4.15;;;1.20;;
51664;SDS011;37751;52.408;12.536;2022-09-21T17:47:23;2.33;;;1.42;;
51664;SDS011;37751;52.408;12.536;2022-09-21T17:49:56;2.35;;;1.10;;
51664;SDS011;37751;52.408;12.536;2022-09-21T17:52:28;1.73;;;0.90;;
51664;SDS011;37751;52.408;12.536;2022-09-21T17:55:13;2.40;;;1.58;;
51664;SDS011;37751;52.408;12.536;2022-09-21T18:01:18;8.23;;;1.27;;
51664;SDS011;37751;52.408;12.536;2022-09-21T18:03:28;2.42;;;1.30;;
51664;SDS011;37751;52.408;12.536;2022-09-21T18:05:56;5.43;;;1.50;;
51664;SDS011;37751;52.408;12.536;2022-09-21T18:08:27;5.03;;;1.35;;
51664;SDS011;37751;52.408;12.536;2022-09-21T18:11:04;4.25;;;1.35;;
51664;SDS011;37751;52.408;12.536;2022-09-21T18:14:19;3.13;;;1.67;;
51664;SDS011;37751;52.408;12.536;2022-09-21T18:20:10;6.13;;;1.50;;
51664;SDS011;37751;52.408;12.536;2022-09-21T18:22:57;3.50;;;1.67;;
51664;SDS011;37751;52.408;12.536;2022-09-21T18:25:34;7.25;;;1.52;;
51664;SDS011;37751;52.408;12.536;2022-09-21T18:28:21;3.90;;;1.83;;
51664;SDS011;37751;52.408;12.536;2022-09-21T18:31:11;4.35;;;2.50;;
51664;SDS011;37751;52.408;12.536;2022-09-21T18:36:30;3.67;;;2.38;;
51664;SDS011;37751;52.408;12.536;2022-09-21T18:39:04;11.07;;;2.90;;
51664;SDS011;37751;52.408;12.536;2022-09-21T18:44:30;5.05;;;3.38;;
51664;SDS011;37751;52.408;12.536;2022-09-21T18:47:14;5.53;;;2.78;;
51664;SDS011;37751;52.408;12.536;2022-09-21T18:49:59;3.00;;;2.55;;
51664;SDS011;37751;52.408;12.536;2022-09-21T18:55:23;4.65;;;2.72;;
51664;SDS011;37751;52.408;12.536;2022-09-21T18:57:54;5.60;;;3.00;;